createdAt,value
2022-10-01T00:02:07.688Z,5.55
2022-10-01T00:04:37.117Z,5.63
2022-10-01T00:07:09.540Z,5.38
2022-10-01T00:09:37.414Z,5.78
2022-10-01T00:12:05.044Z,5.57
2022-10-01T00:14:32.769Z,5.80
2022-10-01T00:17:00.371Z,5.72
2022-10-01T00:19:28.077Z,5.32
2022-10-01T00:21:55.648Z,5.00
2022-10-01T00:24:22.941Z,4.85
2022-10-01T00:26:50.782Z,5.40
2022-10-01T00:29:20.217Z,5.57
2022-10-01T00:31:47.717Z,5.72
2022-10-01T00:34:15.843Z,5.70
2022-10-01T00:36:43.180Z,4.88
2022-10-01T00:39:11.947Z,4.90
2022-10-01T00:41:40.598Z,5.20
2022-10-01T00:44:32.422Z,4.90
2022-10-01T00:47:13.986Z,4.68
2022-10-01T00:49:43.776Z,5.35
2022-10-01T00:52:16.436Z,4.68
2022-10-01T00:54:50.824Z,4.40
2022-10-01T00:57:23.183Z,4.72
2022-10-01T00:59:52.273Z,4.82
2022-10-01T01:02:20.963Z,4.78
2022-10-01T01:04:48.423Z,4.72
2022-10-01T01:07:16.368Z,4.90
2022-10-01T01:09:47.563Z,4.55
2022-10-01T01:12:33.748Z,5.10
2022-10-01T01:15:47.447Z,4.50
2022-10-01T01:18:35.452Z,4.95
2022-10-01T01:21:16.145Z,4.65
2022-10-01T01:24:24.954Z,4.68
2022-10-01T01:27:20.053Z,4.13
2022-10-01T01:29:53.052Z,4.15
2022-10-01T01:32:30.840Z,4.32
2022-10-01T01:35:03.262Z,4.30
2022-10-01T01:37:38.056Z,4.43
2022-10-01T01:40:12.687Z,4.50
2022-10-01T01:42:43.209Z,4.75
2022-10-01T01:45:17.213Z,4.30
2022-10-01T01:47:45.936Z,4.00
2022-10-01T01:50:15.933Z,4.28
2022-10-01T01:52:43.587Z,4.60
2022-10-01T01:55:11.123Z,4.32
2022-10-01T01:57:42.307Z,4.70
2022-10-01T02:00:13.004Z,4.20
2022-10-01T02:02:50.194Z,4.63
2022-10-01T02:05:35.174Z,4.20
2022-10-01T02:08:13.020Z,4.18
2022-10-01T02:11:16.087Z,4.40
2022-10-01T02:13:52.296Z,4.05
2022-10-01T02:16:22.736Z,4.13
2022-10-01T02:19:05.639Z,3.90
2022-10-01T02:21:46.822Z,4.22
2022-10-01T02:24:26.464Z,3.90
2022-10-01T02:26:56.872Z,4.00
2022-10-01T02:29:25.283Z,4.32
2022-10-01T02:31:55.807Z,4.35
2022-10-01T02:34:27.978Z,3.80
2022-10-01T02:36:58.914Z,4.07
2022-10-01T02:39:30.175Z,3.67
2022-10-01T02:42:00.750Z,4.10
2022-10-01T02:44:38.058Z,3.75
2022-10-01T02:47:34.238Z,4.10
2022-10-01T02:50:04.724Z,3.88
2022-10-01T02:52:59.114Z,3.67
2022-10-01T02:55:30.767Z,3.80
2022-10-01T02:57:58.356Z,3.60
2022-10-01T03:00:27.139Z,3.30
2022-10-01T03:02:54.928Z,3.42
2022-10-01T03:05:22.469Z,3.58
2022-10-01T03:07:49.807Z,3.90
2022-10-01T03:10:18.617Z,3.85
2022-10-01T03:12:47.251Z,3.83
2022-10-01T03:15:16.274Z,3.47
2022-10-01T03:17:43.666Z,3.70
2022-10-01T03:20:12.204Z,3.90
2022-10-01T03:22:39.663Z,3.42
2022-10-01T03:25:07.706Z,3.47
2022-10-01T03:27:35.038Z,4.25
2022-10-01T03:30:02.617Z,3.38
2022-10-01T03:32:30.171Z,3.20
2022-10-01T03:34:59.994Z,3.70
2022-10-01T03:37:27.358Z,3.60
2022-10-01T03:39:54.941Z,3.25
2022-10-01T03:42:22.472Z,3.10
2022-10-01T03:44:51.039Z,4.10
2022-10-01T03:47:24.430Z,3.47
2022-10-01T03:52:19.174Z,3.33
2022-10-01T03:54:46.559Z,3.40
2022-10-01T03:57:13.959Z,3.30
2022-10-01T03:59:41.240Z,3.67
2022-10-01T04:02:09.156Z,3.50
2022-10-01T04:04:36.926Z,3.45
2022-10-01T04:07:04.378Z,3.35
2022-10-01T04:09:31.819Z,2.90
2022-10-01T04:11:59.818Z,2.65
2022-10-01T04:14:27.115Z,2.80
2022-10-01T04:16:54.567Z,2.85
2022-10-01T04:19:22.203Z,2.95
2022-10-01T04:21:49.627Z,2.90
2022-10-01T04:24:17.219Z,3.38
2022-10-01T04:26:44.544Z,2.80
2022-10-01T04:29:13.081Z,3.03
2022-10-01T04:31:41.034Z,3.22
2022-10-01T04:34:08.580Z,3.25
2022-10-01T04:36:36.011Z,3.30
2022-10-01T04:39:03.712Z,3.15
2022-10-01T04:41:32.199Z,3.42
2022-10-01T04:44:00.446Z,3.28
2022-10-01T04:46:30.437Z,3.50
2022-10-01T04:48:58.180Z,3.22
2022-10-01T04:51:26.007Z,3.60
2022-10-01T04:53:53.561Z,3.42
2022-10-01T04:56:21.209Z,3.35
2022-10-01T04:58:49.167Z,3.17
2022-10-01T05:01:16.810Z,3.22
2022-10-01T05:03:44.436Z,3.67
2022-10-01T05:06:11.775Z,3.10
2022-10-01T05:08:39.419Z,2.90
2022-10-01T05:11:06.742Z,3.28
2022-10-01T05:13:34.323Z,3.42
2022-10-01T05:16:03.824Z,3.20
2022-10-01T05:18:32.444Z,3.30
2022-10-01T05:21:04.205Z,3.35
2022-10-01T05:23:33.263Z,3.35
2022-10-01T05:26:00.865Z,3.45
2022-10-01T05:28:28.631Z,3.33
2022-10-01T05:31:00.510Z,3.15
2022-10-01T05:33:29.657Z,3.10
2022-10-01T05:35:57.905Z,3.03
2022-10-01T05:38:26.069Z,2.97
2022-10-01T05:40:53.506Z,3.63
2022-10-01T05:43:22.024Z,3.00
2022-10-01T05:45:51.264Z,3.13
2022-10-01T05:48:19.042Z,3.17
2022-10-01T05:50:46.655Z,3.25
2022-10-01T05:53:16.100Z,3.90
2022-10-01T05:55:43.549Z,3.45
2022-10-01T05:58:13.163Z,3.50
2022-10-01T06:00:42.110Z,3.55
2022-10-01T06:03:13.050Z,2.95
2022-10-01T06:05:40.921Z,2.85
2022-10-01T06:08:09.834Z,2.80
2022-10-01T06:10:39.881Z,2.95
2022-10-01T06:13:07.655Z,2.50
2022-10-01T06:15:38.022Z,2.50
2022-10-01T06:18:07.701Z,2.30
2022-10-01T06:20:35.934Z,2.15
2022-10-01T06:23:07.281Z,2.30
2022-10-01T06:25:36.393Z,2.50
2022-10-01T06:28:06.005Z,2.13
2022-10-01T06:30:35.720Z,2.03
2022-10-01T06:33:05.741Z,2.00
2022-10-01T06:35:35.296Z,2.10
2022-10-01T06:38:03.105Z,1.88
2022-10-01T06:40:31.206Z,2.20
2022-10-01T06:42:59.071Z,2.00
2022-10-01T06:45:28.502Z,1.95
2022-10-01T06:48:03.158Z,1.70
2022-10-01T06:50:32.352Z,1.73
2022-10-01T06:53:02.359Z,2.17
2022-10-01T06:55:35.584Z,2.00
2022-10-01T07:00:36.645Z,2.10
2022-10-01T07:03:06.571Z,2.17
2022-10-01T07:05:33.935Z,1.90
2022-10-01T07:08:01.804Z,2.08
2022-10-01T07:10:29.121Z,1.80
2022-10-01T07:12:56.852Z,1.90
2022-10-01T07:15:28.720Z,2.00
2022-10-01T07:17:56.612Z,1.60
2022-10-01T07:20:24.007Z,2.03
2022-10-01T07:22:59.174Z,1.80
2022-10-01T07:25:27.446Z,1.90
2022-10-01T07:27:59.608Z,1.90
2022-10-01T07:30:28.102Z,1.90
2022-10-01T07:32:55.524Z,1.80
2022-10-01T07:35:25.337Z,1.67
2022-10-01T07:37:55.381Z,2.38
2022-10-01T07:40:22.915Z,2.30
2022-10-01T07:42:54.962Z,2.05
2022-10-01T07:45:26.193Z,2.20
2022-10-01T07:48:00.516Z,2.15
2022-10-01T07:50:30.576Z,2.20
2022-10-01T07:52:59.477Z,2.00
2022-10-01T07:55:29.015Z,1.90
2022-10-01T07:57:58.251Z,2.00
2022-10-01T08:00:28.832Z,2.10
2022-10-01T08:02:57.235Z,1.90
2022-10-01T08:05:30.539Z,1.80
2022-10-01T08:08:05.708Z,2.85
2022-10-01T08:10:36.674Z,2.10
2022-10-01T08:13:14.440Z,2.05
2022-10-01T08:15:44.236Z,2.00
2022-10-01T08:18:12.913Z,2.25
2022-10-01T08:20:40.790Z,1.85
2022-10-01T08:23:14.262Z,1.65
2022-10-01T08:25:43.147Z,1.90
2022-10-01T08:28:12.537Z,1.80
2022-10-01T08:30:41.927Z,1.98
2022-10-01T08:33:13.524Z,2.28
2022-10-01T08:35:41.917Z,1.83
2022-10-01T08:38:11.032Z,2.30
2022-10-01T08:40:48.861Z,2.00
2022-10-01T08:43:25.385Z,2.30
2022-10-01T08:45:58.962Z,2.30
2022-10-01T08:48:45.374Z,3.45
2022-10-01T08:51:25.840Z,3.75
2022-10-01T08:53:59.642Z,3.22
2022-10-01T08:56:34.239Z,2.90
2022-10-01T08:59:14.398Z,2.60
2022-10-01T09:01:41.884Z,2.58
2022-10-01T09:04:10.957Z,2.40
2022-10-01T09:06:38.623Z,2.60
2022-10-01T09:09:21.396Z,2.53
2022-10-01T09:12:08.478Z,2.60
2022-10-01T09:15:08.728Z,2.13
2022-10-01T09:18:10.361Z,1.92
2022-10-01T09:20:58.771Z,2.05
2022-10-01T09:23:39.701Z,2.53
2022-10-01T09:26:12.390Z,2.72
2022-10-01T09:28:41.627Z,2.20
2022-10-01T09:31:31.932Z,2.03
2022-10-01T09:34:12.804Z,2.03
2022-10-01T09:36:58.155Z,1.80
2022-10-01T09:39:51.289Z,1.90
2022-10-01T09:42:19.495Z,1.90
2022-10-01T09:44:47.739Z,2.15
2022-10-01T09:47:20.325Z,2.05
2022-10-01T09:49:49.778Z,1.52
2022-10-01T09:52:34.619Z,2.03
2022-10-01T09:55:19.948Z,1.80
2022-10-01T09:58:17.595Z,1.92
2022-10-01T10:00:48.307Z,1.65
2022-10-01T10:03:30.961Z,1.80
2022-10-01T10:06:01.867Z,1.52
2022-10-01T10:08:37.080Z,1.67
2022-10-01T10:11:10.539Z,1.50
2022-10-01T10:13:49.883Z,1.60
2022-10-01T10:16:28.544Z,1.60
2022-10-01T10:19:04.195Z,1.45
2022-10-01T10:21:36.661Z,1.30
2022-10-01T10:24:06.876Z,1.37
2022-10-01T10:26:40.035Z,1.30
2022-10-01T10:29:24.592Z,1.50
2022-10-01T10:31:54.208Z,1.60
2022-10-01T10:34:39.572Z,1.30
2022-10-01T10:37:17.268Z,1.60
2022-10-01T10:39:51.513Z,1.55
2022-10-01T10:42:19.896Z,1.27
2022-10-01T10:44:50.179Z,1.30
2022-10-01T10:47:21.270Z,1.25
2022-10-01T10:49:54.686Z,1.30
2022-10-01T10:52:30.108Z,1.38
2022-10-01T10:54:59.654Z,1.20
2022-10-01T10:57:34.107Z,1.45
2022-10-01T11:00:16.071Z,1.27
2022-10-01T11:03:04.368Z,1.50
2022-10-01T11:05:39.497Z,1.10
2022-10-01T11:08:12.974Z,1.55
2022-10-01T11:11:14.732Z,1.20
2022-10-01T11:13:59.797Z,1.30
2022-10-01T11:16:49.737Z,1.20
2022-10-01T11:19:29.688Z,1.30
2022-10-01T11:21:56.971Z,1.30
2022-10-01T11:24:36.751Z,1.30
2022-10-01T11:27:45.535Z,1.48
2022-10-01T11:30:19.456Z,1.30
2022-10-01T11:32:55.138Z,1.55
2022-10-01T11:35:22.686Z,1.75
2022-10-01T11:38:13.367Z,1.85
2022-10-01T11:40:43.606Z,2.35
2022-10-01T11:43:17.019Z,1.77
2022-10-01T11:45:49.270Z,1.83
2022-10-01T11:48:29.912Z,1.70
2022-10-01T11:51:08.409Z,1.50
2022-10-01T11:53:46.127Z,1.48
2022-10-01T11:56:43.732Z,1.60
2022-10-01T11:59:23.727Z,1.40
2022-10-01T12:02:03.605Z,1.60
2022-10-01T12:04:39.331Z,1.42
2022-10-01T12:07:47.154Z,1.30
2022-10-01T12:10:42.625Z,1.50
2022-10-01T12:13:16.271Z,1.50
2022-10-01T12:15:53.677Z,1.33
2022-10-01T12:18:29.699Z,1.40
2022-10-01T12:21:01.764Z,1.35
2022-10-01T12:23:52.795Z,1.27
2022-10-01T12:26:37.953Z,1.38
2022-10-01T12:29:16.691Z,1.35
2022-10-01T12:32:17.437Z,1.40
2022-10-01T12:34:57.054Z,1.50
2022-10-01T12:37:33.513Z,2.08
2022-10-01T12:40:48.005Z,1.70
2022-10-01T12:43:44.758Z,1.50
2022-10-01T12:46:31.815Z,1.48
2022-10-01T12:49:12.906Z,1.40
2022-10-01T12:51:46.820Z,1.60
2022-10-01T12:54:24.340Z,1.58
2022-10-01T12:57:04.356Z,1.50
2022-10-01T12:59:53.524Z,1.55
2022-10-01T13:02:33.159Z,1.55
2022-10-01T13:05:20.043Z,1.52
2022-10-01T13:07:54.883Z,1.67
2022-10-01T13:10:48.884Z,1.70
2022-10-01T13:13:16.985Z,1.60
2022-10-01T13:15:49.790Z,1.50
2022-10-01T13:18:59.563Z,1.60
2022-10-01T13:21:51.221Z,1.50
2022-10-01T13:24:30.923Z,1.60
2022-10-01T13:27:18.295Z,1.63
2022-10-01T13:30:03.570Z,1.60
2022-10-01T13:32:37.357Z,1.65
2022-10-01T13:35:30.414Z,1.75
2022-10-01T13:38:00.716Z,1.70
2022-10-01T13:40:29.380Z,2.03
2022-10-01T13:43:08.953Z,1.98
2022-10-01T13:45:42.193Z,1.63
2022-10-01T13:51:16.403Z,1.90
2022-10-01T13:53:47.476Z,1.70
2022-10-01T13:56:28.797Z,1.55
2022-10-01T13:58:56.655Z,1.63
2022-10-01T14:01:24.533Z,1.50
2022-10-01T14:04:23.803Z,1.50
2022-10-01T14:07:00.885Z,1.60
2022-10-01T14:09:34.097Z,1.40
2022-10-01T14:15:31.191Z,1.30
2022-10-01T14:18:04.366Z,1.50
2022-10-01T14:20:37.584Z,1.30
2022-10-01T14:23:20.155Z,1.40
2022-10-01T14:26:07.485Z,1.58
2022-10-01T14:28:53.607Z,1.15
2022-10-01T14:31:27.116Z,1.27
2022-10-01T14:34:08.561Z,1.10
2022-10-01T14:37:05.554Z,1.20
2022-10-01T14:39:33.343Z,1.20
2022-10-01T14:42:16.632Z,1.05
2022-10-01T14:44:47.283Z,1.02
2022-10-01T14:47:20.360Z,1.17
2022-10-01T14:49:49.357Z,1.35
2022-10-01T14:52:22.686Z,1.20
2022-10-01T14:55:13.115Z,1.10
2022-10-01T14:57:42.727Z,1.25
2022-10-01T15:00:28.928Z,1.02
2022-10-01T15:03:15.125Z,1.20
2022-10-01T15:05:44.744Z,1.25
2022-10-01T15:08:13.731Z,1.15
2022-10-01T15:10:47.632Z,1.10
2022-10-01T15:13:27.399Z,1.10
2022-10-01T15:15:56.084Z,1.00
2022-10-01T15:18:27.002Z,1.13
2022-10-01T15:21:05.740Z,1.20
2022-10-01T15:23:38.739Z,1.20
2022-10-01T15:26:10.468Z,0.98
2022-10-01T15:28:38.278Z,1.05
2022-10-01T15:31:07.793Z,0.82
2022-10-01T15:33:41.457Z,1.00
2022-10-01T15:36:15.829Z,1.25
2022-10-01T15:38:46.042Z,1.10
2022-10-01T15:41:33.474Z,1.13
2022-10-01T15:44:06.398Z,1.13
2022-10-01T15:46:35.694Z,1.10
2022-10-01T15:49:20.346Z,0.93
2022-10-01T15:52:20.584Z,0.95
2022-10-01T15:54:58.090Z,1.30
2022-10-01T15:57:27.283Z,1.38
2022-10-01T15:59:59.151Z,1.20
2022-10-01T16:02:33.361Z,1.30
2022-10-01T16:05:08.900Z,1.40
2022-10-01T16:07:38.368Z,1.38
2022-10-01T16:10:42.548Z,1.00
2022-10-01T16:13:32.214Z,1.05
2022-10-01T16:16:21.239Z,1.20
2022-10-01T16:19:17.967Z,1.20
2022-10-01T16:22:17.603Z,1.30
2022-10-01T16:24:47.397Z,1.30
2022-10-01T16:27:44.173Z,1.20
2022-10-01T16:30:26.985Z,1.30
2022-10-01T16:32:55.335Z,1.20
2022-10-01T16:35:25.364Z,1.45
2022-10-01T16:37:56.072Z,1.50
2022-10-01T16:40:32.412Z,1.40
2022-10-01T16:43:02.960Z,1.67
2022-10-01T16:45:37.207Z,1.40
2022-10-01T16:48:16.594Z,1.40
2022-10-01T16:50:46.449Z,1.20
2022-10-01T16:53:18.531Z,1.35
2022-10-01T16:55:48.293Z,1.90
2022-10-01T16:58:19.583Z,1.50
2022-10-01T17:00:47.611Z,1.55
2022-10-01T17:03:18.417Z,1.60
2022-10-01T17:05:48.877Z,1.58
2022-10-01T17:08:17.162Z,1.50
2022-10-01T17:10:47.632Z,1.70
2022-10-01T17:13:16.046Z,1.35
2022-10-01T17:15:43.634Z,1.48
2022-10-01T17:18:11.146Z,1.20
2022-10-01T17:20:38.669Z,1.75
2022-10-01T17:23:06.799Z,1.58
2022-10-01T17:25:37.178Z,1.45
2022-10-01T17:28:09.402Z,2.00
2022-10-01T17:30:40.854Z,1.90
2022-10-01T17:33:09.114Z,2.08
2022-10-01T17:35:42.930Z,1.48
2022-10-01T17:38:11.629Z,1.70
2022-10-01T17:40:41.234Z,2.63
2022-10-01T17:43:15.044Z,2.25
2022-10-01T17:45:43.121Z,2.60
2022-10-01T17:48:10.680Z,1.88
2022-10-01T17:50:43.605Z,2.38
2022-10-01T17:53:14.990Z,1.95
2022-10-01T17:55:45.673Z,1.85
2022-10-01T17:58:13.254Z,1.95
2022-10-01T18:00:45.781Z,2.00
2022-10-01T18:03:13.463Z,2.30
2022-10-01T18:05:41.592Z,2.13
2022-10-01T18:08:09.314Z,1.60
2022-10-01T18:10:36.609Z,2.30
2022-10-01T18:13:05.274Z,1.80
2022-10-01T18:15:32.695Z,1.50
2022-10-01T18:18:58.778Z,1.85
2022-10-01T18:20:47.852Z,1.70
2022-10-01T18:23:15.422Z,2.08
2022-10-01T18:25:42.689Z,1.70
2022-10-01T18:28:10.261Z,1.80
2022-10-01T18:30:37.707Z,1.70
2022-10-01T18:33:05.639Z,1.50
2022-10-01T18:35:34.903Z,1.40
2022-10-01T18:38:20.171Z,1.70
2022-10-01T18:40:59.308Z,1.67
2022-10-01T18:43:27.002Z,1.83
2022-10-01T18:46:35.949Z,1.58
2022-10-01T18:49:38.870Z,1.83
2022-10-01T18:52:24.950Z,1.35
2022-10-01T18:54:54.771Z,1.60
2022-10-01T18:57:37.373Z,1.30
2022-10-01T19:00:18.356Z,1.20
2022-10-01T19:02:53.345Z,1.70
2022-10-01T19:05:51.732Z,1.50
2022-10-01T19:08:49.438Z,1.63
2022-10-01T19:11:31.113Z,1.67
2022-10-01T19:14:10.590Z,1.52
2022-10-01T19:17:12.876Z,1.60
2022-10-01T19:20:15.613Z,1.73
2022-10-01T19:23:20.159Z,1.80
2022-10-01T19:25:50.178Z,1.77
2022-10-01T19:28:36.471Z,2.00
2022-10-01T19:31:20.682Z,1.80
2022-10-01T19:34:13.965Z,1.80
2022-10-01T19:36:48.779Z,1.53
2022-10-01T19:39:24.156Z,1.58
2022-10-01T19:42:02.655Z,1.50
2022-10-01T19:45:00.709Z,1.30
2022-10-01T19:47:45.933Z,1.70
2022-10-01T19:50:25.156Z,1.80
2022-10-01T19:52:57.652Z,1.77
2022-10-01T19:55:36.362Z,1.67
2022-10-01T19:58:17.823Z,1.80
2022-10-01T20:00:48.874Z,1.83
2022-10-01T20:03:27.523Z,1.95
2022-10-01T20:06:04.895Z,2.10
2022-10-01T20:08:47.806Z,2.15
2022-10-01T20:11:28.425Z,1.80
2022-10-01T20:14:07.811Z,1.70
2022-10-01T20:16:43.835Z,1.98
2022-10-01T20:19:22.347Z,1.92
2022-10-01T20:22:08.405Z,1.88
2022-10-01T20:25:00.614Z,1.80
2022-10-01T20:27:49.277Z,1.90
2022-10-01T20:30:20.303Z,1.73
2022-10-01T20:33:15.374Z,2.10
2022-10-01T20:36:05.844Z,1.98
2022-10-01T20:39:04.538Z,1.92
2022-10-01T20:41:45.838Z,1.95
2022-10-01T20:44:18.627Z,1.85
2022-10-01T20:46:48.898Z,2.05
2022-10-01T20:49:33.104Z,2.03
2022-10-01T20:52:10.211Z,1.67
2022-10-01T20:54:44.281Z,2.45
2022-10-01T20:57:39.597Z,2.15
2022-10-01T21:00:18.606Z,2.20
2022-10-01T21:02:54.719Z,1.85
2022-10-01T21:05:28.846Z,2.40
2022-10-01T21:08:02.113Z,2.00
2022-10-01T21:10:59.666Z,2.00
2022-10-01T21:13:30.074Z,2.00
2022-10-01T21:16:29.304Z,2.30
2022-10-01T21:19:03.002Z,2.53
2022-10-01T21:21:55.136Z,2.00
2022-10-01T21:24:44.556Z,2.00
2022-10-01T21:27:31.000Z,2.40
2022-10-01T21:30:22.819Z,2.03
2022-10-01T21:33:19.804Z,1.98
2022-10-01T21:36:10.899Z,1.92
2022-10-01T21:38:44.252Z,1.92
2022-10-01T21:41:23.592Z,2.17
2022-10-01T21:44:06.801Z,2.13
2022-10-01T21:47:05.596Z,1.83
2022-10-01T21:49:59.135Z,2.20
2022-10-01T21:52:33.481Z,1.80
2022-10-01T21:55:32.883Z,2.17
2022-10-01T21:58:40.807Z,1.70
2022-10-01T22:01:17.976Z,2.10
2022-10-01T22:04:15.622Z,1.80
2022-10-01T22:06:53.313Z,1.92
2022-10-01T22:09:40.439Z,2.08
2022-10-01T22:12:11.175Z,2.80
2022-10-01T22:14:40.545Z,2.20
2022-10-01T22:17:12.574Z,1.98
2022-10-01T22:19:45.877Z,2.22
2022-10-01T22:22:26.832Z,2.10
2022-10-01T22:24:57.239Z,2.33
2022-10-01T22:27:44.162Z,1.90
2022-10-01T22:30:20.082Z,2.30
2022-10-01T22:32:53.714Z,2.35
2022-10-01T22:35:31.041Z,1.60
2022-10-01T22:38:54.207Z,1.80
2022-10-01T22:41:33.988Z,2.60
2022-10-01T22:44:12.804Z,2.22
2022-10-01T22:47:05.954Z,1.80
2022-10-01T22:49:39.494Z,2.13
2022-10-01T22:52:51.248Z,2.20
2022-10-01T22:55:39.137Z,2.40
2022-10-01T22:58:35.266Z,2.20
2022-10-01T23:01:21.194Z,2.00
2022-10-01T23:04:13.352Z,2.22
2022-10-01T23:07:24.473Z,2.00
2022-10-01T23:10:04.061Z,2.03
2022-10-01T23:12:50.706Z,1.88
2022-10-01T23:15:40.956Z,2.10
2022-10-01T23:18:22.631Z,2.13
2022-10-01T23:21:12.053Z,2.13
2022-10-01T23:23:55.332Z,2.10
2022-10-01T23:26:58.121Z,2.05
2022-10-01T23:30:09.404Z,2.33
2022-10-01T23:33:01.190Z,1.98
2022-10-01T23:36:03.270Z,2.00
2022-10-01T23:38:42.423Z,2.05
2022-10-01T23:41:19.164Z,2.28
2022-10-01T23:43:50.290Z,1.92
2022-10-01T23:46:30.740Z,2.03
2022-10-01T23:49:15.032Z,2.28
2022-10-01T23:51:52.319Z,1.98
2022-10-01T23:54:41.019Z,2.40
2022-10-01T23:57:24.511Z,1.95
